S 386 Casilo — OZZP — position and weather

sailwx.info

Track history (hours):
 
Tides and Currents Weather Stations Pressure Air Temp Water Temp Dewpoint Dewpoint Depression Visibility Wind Speed Wind Dir Waves Ship Positions

S 386 Casilo

Last reported at 2014-Aug-28 00:29 UTC. Time now 2014-Aug-28 01:18 UTC.
Position N 58°38' E 010°25'.

Length 24 m.

Type: Fishing. MMSI: 219948000.

Date/timePositionNaut miles runAvg speedWind from/ knotsBaromVisibWave heightAir tempDewpointWater temp
2014-Aug-28 00:29N 58°38' E 010°25'14 2.2
2014-Aug-27 18:21N 58°49' E 010°09'5 6.4
2014-Aug-27 17:33N 58°46' E 010°16'1 0.9
2014-Aug-27 16:26N 58°45' E 010°17'2 1.8
2014-Aug-27 15:32N 58°44' E 010°19'31 2.2
2014-Aug-27 01:15N 58°22' E 011°02'6 8.1
2014-Aug-27 00:31N 58°19' E 011°12'29 0.9
2014-Aug-25 15:25N 57°55' E 010°42'7 8.3
2014-Aug-25 14:33N 57°48' E 010°43'6 6.1
2014-Aug-25 13:32N 57°43' E 010°36'0 0.2
2014-Aug-25 12:24N 57°43' E 010°36'0 0.0
2014-Aug-25 11:32N 57°43' E 010°36'0 0.0
2014-Aug-25 10:27N 57°43' E 010°36'6 7.2
2014-Aug-25 09:33N 57°46' E 010°46'  
2014-Aug-22 12:33N 57°52' E 010°42'8 8.3
2014-Aug-22 11:33N 57°44' E 010°39'2 1.8
2014-Aug-22 10:28N 57°43' E 010°36'0 0.0
2014-Aug-22 09:31N 57°43' E 010°36'0 0.2
2014-Aug-22 08:33N 57°43' E 010°36'0 0.0
2014-Aug-22 07:33N 57°43' E 010°36'0 0.0
2014-Aug-22 04:33N 57°43' E 010°36'0 0.0
2014-Aug-22 03:33N 57°43' E 010°36'0 0.0
2014-Aug-22 00:18N 57°43' E 010°36'0 0.0
2014-Aug-21 23:33N 57°43' E 010°36'0 0.0
2014-Aug-21 22:33N 57°43' E 010°36'0 0.0
2014-Aug-21 19:33N 57°43' E 010°36'0 0.0
2014-Aug-21 18:33N 57°43' E 010°36'0 0.0
2014-Aug-21 15:33N 57°43' E 010°36'0 0.0
2014-Aug-21 14:33N 57°43' E 010°36'0 0.0
2014-Aug-21 13:33N 57°43' E 010°36'0 0.0
2014-Aug-21 12:18N 57°43' E 010°36'0 0.1
2014-Aug-21 11:31N 57°43' E 010°36'0 0.0
2014-Aug-21 09:04N 57°43' E 010°36'2 3.8
2014-Aug-21 08:33N 57°44' E 010°39'8 7.8
2014-Aug-21 07:34N 57°51' E 010°42'9 9.1
2014-Aug-21 06:31N 57°60' E 010°35'9 9.2
2014-Aug-21 05:32N 58°08' E 010°28'  
Track history (hours):
 
Tides and Currents Weather Stations Pressure Air Temp Water Temp Dewpoint Dewpoint Depression Visibility Wind Speed Wind Dir Waves Ship Positions

S 386 Casilo

Last reported at 2014-Aug-28 00:29 UTC. Time now 2014-Aug-28 01:18 UTC.
Position N 58°38' E 010°25'.

Length 24 m.

Type: Fishing. MMSI: 219948000.

Date/timePositionNaut miles runAvg speedWind from/ knotsBaromVisibWave heightAir tempDewpointWater temp
2014-Aug-28 00:29N 58°38' E 010°25'14 2.2
2014-Aug-27 18:21N 58°49' E 010°09'5 6.4
2014-Aug-27 17:33N 58°46' E 010°16'1 0.9
2014-Aug-27 16:26N 58°45' E 010°17'2 1.8
2014-Aug-27 15:32N 58°44' E 010°19'31 2.2
2014-Aug-27 01:15N 58°22' E 011°02'6 8.1
2014-Aug-27 00:31N 58°19' E 011°12'29 0.9
2014-Aug-25 15:25N 57°55' E 010°42'7 8.3
2014-Aug-25 14:33N 57°48' E 010°43'6 6.1
2014-Aug-25 13:32N 57°43' E 010°36'0 0.2
2014-Aug-25 12:24N 57°43' E 010°36'0 0.0
2014-Aug-25 11:32N 57°43' E 010°36'0 0.0
2014-Aug-25 10:27N 57°43' E 010°36'6 7.2
2014-Aug-25 09:33N 57°46' E 010°46'  
2014-Aug-22 12:33N 57°52' E 010°42'8 8.3
2014-Aug-22 11:33N 57°44' E 010°39'2 1.8
2014-Aug-22 10:28N 57°43' E 010°36'0 0.0
2014-Aug-22 09:31N 57°43' E 010°36'0 0.2
2014-Aug-22 08:33N 57°43' E 010°36'0 0.0
2014-Aug-22 07:33N 57°43' E 010°36'0 0.0
2014-Aug-22 04:33N 57°43' E 010°36'0 0.0
2014-Aug-22 03:33N 57°43' E 010°36'0 0.0
2014-Aug-22 00:18N 57°43' E 010°36'0 0.0
2014-Aug-21 23:33N 57°43' E 010°36'0 0.0
2014-Aug-21 22:33N 57°43' E 010°36'0 0.0
2014-Aug-21 19:33N 57°43' E 010°36'0 0.0
2014-Aug-21 18:33N 57°43' E 010°36'0 0.0
2014-Aug-21 15:33N 57°43' E 010°36'0 0.0
2014-Aug-21 14:33N 57°43' E 010°36'0 0.0
2014-Aug-21 13:33N 57°43' E 010°36'0 0.0
2014-Aug-21 12:18N 57°43' E 010°36'0 0.1
2014-Aug-21 11:31N 57°43' E 010°36'0 0.0
2014-Aug-21 09:04N 57°43' E 010°36'2 3.8
2014-Aug-21 08:33N 57°44' E 010°39'8 7.8
2014-Aug-21 07:34N 57°51' E 010°42'9 9.1
2014-Aug-21 06:31N 57°60' E 010°35'9 9.2
2014-Aug-21 05:32N 58°08' E 010°28'  

Dump ship's entire track history